createdAt,value
2023-01-02T00:02:02.944Z,100320.00
2023-01-02T00:04:29.525Z,100320.59
2023-01-02T00:06:56.054Z,100318.44
2023-01-02T00:09:22.636Z,100316.31
2023-01-02T00:11:49.041Z,100305.91
2023-01-02T00:14:15.602Z,100292.28
2023-01-02T00:16:42.157Z,100291.47
2023-01-02T00:19:08.846Z,100298.25
2023-01-02T00:21:35.394Z,100290.56
2023-01-02T00:24:01.962Z,100284.25
2023-01-02T00:26:29.859Z,100272.75
2023-01-02T00:28:56.398Z,100259.16
2023-01-02T00:31:22.942Z,100251.53
2023-01-02T00:33:49.477Z,100240.72
2023-01-02T00:36:16.262Z,100230.72
2023-01-02T00:38:42.790Z,100227.44
2023-01-02T00:41:09.647Z,100218.03
2023-01-02T00:43:37.275Z,100225.31
2023-01-02T00:46:09.465Z,100219.06
2023-01-02T00:48:38.077Z,100225.31
2023-01-02T00:51:04.595Z,100241.66
2023-01-02T00:53:31.135Z,100235.13
2023-01-02T00:55:57.749Z,100230.53
2023-01-02T00:58:24.208Z,100221.69
2023-01-02T01:00:51.300Z,100226.25
2023-01-02T01:03:17.971Z,100225.44
2023-01-02T01:05:44.415Z,100218.75
2023-01-02T01:08:10.962Z,100216.88
2023-01-02T01:10:38.304Z,100206.84
2023-01-02T01:13:05.022Z,100183.34
2023-01-02T01:15:33.335Z,100178.47
2023-01-02T01:18:00.348Z,100184.72
2023-01-02T01:20:26.867Z,100173.09
2023-01-02T01:22:53.441Z,100181.53
2023-01-02T01:25:21.073Z,100166.41
2023-01-02T01:27:47.628Z,100175.41
2023-01-02T01:30:14.528Z,100171.88
2023-01-02T01:32:41.064Z,100172.94
2023-01-02T01:35:07.885Z,100170.28
2023-01-02T01:37:34.473Z,100183.25
2023-01-02T01:40:00.951Z,100170.56
2023-01-02T01:42:34.558Z,100180.16
2023-01-02T01:45:01.580Z,100184.69
2023-01-02T01:47:55.366Z,100180.75
2023-01-02T01:50:27.493Z,100184.47
2023-01-02T01:53:05.923Z,100181.28
2023-01-02T01:55:37.145Z,100185.09
2023-01-02T01:58:16.270Z,100182.44
2023-01-02T02:00:43.668Z,100187.53
2023-01-02T02:03:18.656Z,100179.75
2023-01-02T02:05:46.925Z,100181.91
2023-01-02T02:08:45.677Z,100176.06
2023-01-02T02:11:14.091Z,100165.97
2023-01-02T02:13:41.936Z,100166.25
2023-01-02T02:16:15.965Z,100165.81
2023-01-02T02:19:04.051Z,100170.72
2023-01-02T02:21:49.132Z,100159.88
2023-01-02T02:25:09.672Z,100172.44
2023-01-02T02:27:57.807Z,100167.56
2023-01-02T02:30:31.596Z,100156.13
2023-01-02T02:33:05.491Z,100147.28
2023-01-02T02:35:49.533Z,100152.19
2023-01-02T02:38:30.756Z,100138.09
2023-01-02T02:41:19.582Z,100138.44
2023-01-02T02:44:07.297Z,100141.16
2023-01-02T02:46:33.674Z,100145.06
2023-01-02T02:49:18.284Z,100157.19
2023-01-02T02:52:02.485Z,100148.75
2023-01-02T02:54:58.275Z,100142.34
2023-01-02T02:57:25.900Z,100146.59
2023-01-02T02:59:53.425Z,100124.38
2023-01-02T03:02:20.445Z,100124.09
2023-01-02T03:04:51.125Z,100131.19
2023-01-02T03:07:34.992Z,100128.78
2023-01-02T03:10:21.175Z,100132.84
2023-01-02T03:12:55.669Z,100134.19
2023-01-02T03:15:32.485Z,100126.63
2023-01-02T03:18:30.088Z,100138.03
2023-01-02T03:21:11.123Z,100132.59
2023-01-02T03:23:44.947Z,100135.31
2023-01-02T03:26:26.782Z,100147.53
2023-01-02T03:28:57.960Z,100133.72
2023-01-02T03:31:27.937Z,100136.94
2023-01-02T03:34:07.003Z,100145.38
2023-01-02T03:36:36.521Z,100143.72
2023-01-02T03:39:12.498Z,100151.34
2023-01-02T03:41:51.248Z,100138.63
2023-01-02T03:44:20.835Z,100147.84
2023-01-02T03:46:49.137Z,100155.44
2023-01-02T03:49:26.042Z,100147.84
2023-01-02T03:51:53.821Z,100147.28
2023-01-02T03:54:20.679Z,100149.19
2023-01-02T03:56:47.280Z,100144.34
2023-01-02T03:59:32.680Z,100132.25
2023-01-02T04:02:13.407Z,100144.09
2023-01-02T04:05:04.345Z,100136.78
2023-01-02T04:07:37.550Z,100139.47
2023-01-02T04:10:06.744Z,100145.44
2023-01-02T04:12:37.366Z,100141.88
2023-01-02T04:15:07.465Z,100135.38
2023-01-02T04:17:44.909Z,100130.50
2023-01-02T04:20:24.063Z,100131.63
2023-01-02T04:23:07.093Z,100142.19
2023-01-02T04:26:02.804Z,100128.41
2023-01-02T04:28:31.735Z,100138.13
2023-01-02T04:31:06.264Z,100144.38
2023-01-02T04:33:39.237Z,100142.50
2023-01-02T04:36:11.130Z,100142.50
2023-01-02T04:38:38.629Z,100132.69
2023-01-02T04:41:06.965Z,100143.00
2023-01-02T04:43:33.793Z,100152.50
2023-01-02T04:46:00.333Z,100161.72
2023-01-02T04:48:26.823Z,100146.97
2023-01-02T04:50:56.352Z,100137.63
2023-01-02T04:53:22.914Z,100136.53
2023-01-02T04:55:54.720Z,100145.56
2023-01-02T04:58:21.433Z,100163.94
2023-01-02T05:00:47.994Z,100155.25
2023-01-02T05:03:14.451Z,100150.22
2023-01-02T05:05:41.017Z,100167.19
2023-01-02T05:08:13.898Z,100162.72
2023-01-02T05:10:42.593Z,100163.72
2023-01-02T06:30:35.744Z,100159.16
2023-01-02T06:33:02.163Z,100159.47
2023-01-02T06:35:28.702Z,100182.25
2023-01-02T06:37:55.115Z,100180.66
2023-01-02T06:40:21.720Z,100186.56
2023-01-02T06:42:48.126Z,100173.31
2023-01-02T06:45:14.821Z,100168.09
2023-01-02T06:47:41.405Z,100174.88
2023-01-02T06:50:08.116Z,100169.78
2023-01-02T06:52:34.571Z,100180.31
2023-01-02T06:55:01.045Z,100187.91
2023-01-02T06:57:30.609Z,100194.16
2023-01-02T06:59:57.062Z,100185.69
2023-01-02T07:02:23.671Z,100186.53
2023-01-02T07:04:50.170Z,100174.59
2023-01-02T07:07:16.667Z,100183.53
2023-01-02T07:09:43.155Z,100190.28
2023-01-02T07:12:09.586Z,100186.47
2023-01-02T07:14:36.005Z,100188.88
2023-01-02T07:17:02.507Z,100180.75
2023-01-02T07:19:28.983Z,100177.75
2023-01-02T07:21:55.447Z,100177.22
2023-01-02T07:24:21.909Z,100174.50
2023-01-02T07:26:48.377Z,100184.78
2023-01-02T07:29:14.839Z,100190.75
2023-01-02T07:31:41.330Z,100191.31
2023-01-02T07:34:07.789Z,100191.31
2023-01-02T07:36:34.274Z,100181.25
2023-01-02T07:39:00.732Z,100197.25
2023-01-02T07:41:27.210Z,100192.38
2023-01-02T07:43:56.255Z,100199.94
2023-01-02T07:46:23.627Z,100200.19
2023-01-02T07:48:50.768Z,100195.59
2023-01-02T07:51:22.881Z,100188.00
2023-01-02T07:53:53.346Z,100185.28
2023-01-02T07:56:19.828Z,100193.69
2023-01-02T07:58:46.267Z,100201.03
2023-01-02T08:01:13.342Z,100194.78
2023-01-02T08:03:40.094Z,100194.25
2023-01-02T08:06:07.562Z,100183.56
2023-01-02T08:08:34.661Z,100177.97
2023-01-02T08:11:05.606Z,100189.09
2023-01-02T08:13:32.530Z,100193.44
2023-01-02T08:16:03.616Z,100186.38
2023-01-02T08:18:30.080Z,100197.22
2023-01-02T08:20:56.533Z,100203.19
2023-01-02T08:23:22.979Z,100207.78
2023-01-02T08:25:54.078Z,100198.34
2023-01-02T08:28:23.764Z,100191.78
2023-01-02T08:30:50.512Z,100198.34
2023-01-02T08:33:16.973Z,100190.75
2023-01-02T08:35:43.432Z,100194.03
2023-01-02T08:38:09.892Z,100204.34
2023-01-02T08:40:36.593Z,100208.13
2023-01-02T08:43:03.125Z,100203.22
2023-01-02T08:45:30.928Z,100197.41
2023-01-02T08:47:57.360Z,100206.69
2023-01-02T08:50:23.839Z,100204.44
2023-01-02T08:52:50.291Z,100220.13
2023-01-02T08:55:18.758Z,100210.34
2023-01-02T08:57:45.286Z,100206.56
2023-01-02T09:00:11.953Z,100231.94
2023-01-02T09:02:38.638Z,100221.81
2023-01-02T09:05:05.559Z,100234.56
2023-01-02T09:07:34.929Z,100231.84
2023-01-02T09:10:01.516Z,100246.75
2023-01-02T09:12:27.935Z,100226.25
2023-01-02T09:14:54.357Z,100230.50
2023-01-02T09:17:20.867Z,100248.41
2023-01-02T09:19:48.653Z,100234.84
2023-01-02T09:22:15.453Z,100227.28
2023-01-02T09:24:42.048Z,100249.22
2023-01-02T09:27:08.668Z,100243.09
2023-01-02T09:29:35.171Z,100247.88
2023-01-02T09:32:19.727Z,100251.81
2023-01-02T09:34:50.500Z,100243.56
2023-01-02T09:37:17.938Z,100247.38
2023-01-02T09:39:44.434Z,100265.25
2023-01-02T09:42:17.380Z,100261.19
2023-01-02T09:44:55.644Z,100253.66
2023-01-02T09:47:26.002Z,100255.53
2023-01-02T09:49:56.074Z,100268.03
2023-01-02T09:52:28.891Z,100256.38
2023-01-02T09:54:55.361Z,100258.25
2023-01-02T09:57:30.464Z,100265.34
2023-01-02T10:00:20.071Z,100254.50
2023-01-02T10:03:01.560Z,100269.16
2023-01-02T10:06:00.375Z,100252.56
2023-01-02T10:08:46.119Z,100260.75
2023-01-02T10:11:35.779Z,100277.88
2023-01-02T10:14:31.437Z,100274.56
2023-01-02T10:17:17.438Z,100268.38
2023-01-02T10:20:01.705Z,100277.88
2023-01-02T10:22:38.229Z,100270.50
2023-01-02T10:25:15.821Z,100262.94
2023-01-02T10:28:25.078Z,100264.81
2023-01-02T10:31:06.788Z,100272.41
2023-01-02T10:33:36.800Z,100288.69
2023-01-02T10:36:03.800Z,100268.31
2023-01-02T10:38:38.933Z,100261.56
2023-01-02T10:41:06.003Z,100263.41
2023-01-02T10:43:35.081Z,100266.69
2023-01-02T10:46:03.579Z,100268.03
2023-01-02T10:48:33.740Z,100269.97
2023-01-02T10:51:09.553Z,100271.84
2023-01-02T10:53:39.661Z,100278.88
2023-01-02T10:56:07.833Z,100272.66
2023-01-02T10:58:35.405Z,100305.50
2023-01-02T11:01:19.045Z,100318.53
2023-01-02T11:03:47.739Z,100304.94
2023-01-02T11:06:29.027Z,100326.66
2023-01-02T11:09:04.447Z,100335.00
2023-01-02T11:11:32.740Z,100345.56
2023-01-02T11:14:07.841Z,100327.03
2023-01-02T11:16:39.620Z,100334.56
2023-01-02T11:19:09.028Z,100353.16
2023-01-02T11:21:39.089Z,100347.34
2023-01-02T11:24:12.573Z,100346.44
2023-01-02T11:26:40.631Z,100353.69
2023-01-02T11:29:12.180Z,100348.69
2023-01-02T11:31:44.721Z,100361.66
2023-01-02T11:34:20.772Z,100364.75
2023-01-02T11:37:02.157Z,100355.38
2023-01-02T11:39:30.919Z,100348.69
2023-01-02T11:42:27.964Z,100357.16
2023-01-02T11:45:01.311Z,100357.59
2023-01-02T11:47:37.477Z,100357.50
2023-01-02T11:50:04.675Z,100362.91
2023-01-02T11:52:40.433Z,100370.50
2023-01-02T11:55:25.148Z,100363.50
2023-01-02T11:57:56.565Z,100370.16
2023-01-02T12:00:26.126Z,100361.97
2023-01-02T12:02:54.031Z,100377.38
2023-01-02T12:05:24.794Z,100380.69
2023-01-02T12:08:00.172Z,100383.31
2023-01-02T12:10:43.085Z,100392.59
2023-01-02T12:13:53.162Z,100387.88
2023-01-02T12:16:34.335Z,100406.63
2023-01-02T12:19:37.387Z,100408.59
2023-01-02T12:22:29.366Z,100401.16
2023-01-02T12:25:21.811Z,100406.38
2023-01-02T12:28:07.845Z,100407.69
2023-01-02T12:30:45.177Z,100414.06
2023-01-02T12:33:24.925Z,100426.59
2023-01-02T12:36:29.645Z,100437.44
2023-01-02T12:39:11.648Z,100441.41
2023-01-02T12:42:01.348Z,100441.34
2023-01-02T12:44:44.219Z,100455.75
2023-01-02T12:47:31.747Z,100479.72
2023-01-02T12:50:46.890Z,100459.44
2023-01-02T12:53:20.222Z,100451.63
2023-01-02T12:56:15.252Z,100457.44
2023-01-02T12:59:01.583Z,100467.94
2023-01-02T13:02:05.130Z,100460.25
2023-01-02T13:04:40.481Z,100477.97
2023-01-02T13:07:21.241Z,100483.88
2023-01-02T13:09:49.067Z,100479.13
2023-01-02T13:12:19.118Z,100477.50
2023-01-02T13:14:57.679Z,100477.81
2023-01-02T13:17:54.871Z,100482.25
2023-01-02T13:20:45.023Z,100481.34
2023-01-02T13:23:17.522Z,100495.00
2023-01-02T13:26:02.800Z,100499.41
2023-01-02T13:28:29.835Z,100502.72
2023-01-02T13:33:55.499Z,100502.38
2023-01-02T13:36:29.130Z,100507.78
2023-01-02T13:39:07.610Z,100508.63
2023-01-02T13:41:59.675Z,100514.19
2023-01-02T13:44:36.430Z,100531.06
2023-01-02T13:47:33.745Z,100534.91
2023-01-02T13:50:16.018Z,100532.63
2023-01-02T13:53:14.146Z,100542.88
2023-01-02T13:55:40.582Z,100542.19
2023-01-02T13:58:13.251Z,100560.66
2023-01-02T14:00:41.738Z,100538.59
2023-01-02T14:03:20.523Z,100549.75
2023-01-02T14:06:06.049Z,100548.66
2023-01-02T14:08:37.932Z,100550.38
2023-01-02T14:11:27.775Z,100565.63
2023-01-02T14:13:55.630Z,100573.22
2023-01-02T14:16:43.223Z,100574.94
2023-01-02T14:19:12.806Z,100575.94
2023-01-02T14:21:57.640Z,100573.31
2023-01-02T14:24:30.598Z,100583.34
2023-01-02T14:27:01.094Z,100595.72
2023-01-02T14:29:29.556Z,100598.31
2023-01-02T14:32:38.152Z,100603.44
2023-01-02T14:35:21.885Z,100607.56
2023-01-02T14:37:50.929Z,100616.88
2023-01-02T14:40:23.471Z,100612.06
2023-01-02T14:43:14.863Z,100606.31
2023-01-02T14:45:48.869Z,100617.97
2023-01-02T14:48:28.753Z,100633.56
2023-01-02T14:51:03.147Z,100627.81
2023-01-02T14:53:38.022Z,100633.47
2023-01-02T14:56:11.756Z,100634.31
2023-01-02T14:58:44.468Z,100638.06
2023-01-02T15:01:15.288Z,100644.75
2023-01-02T15:04:11.890Z,100631.81
2023-01-02T15:06:45.456Z,100627.25
2023-01-02T15:09:26.926Z,100634.06
2023-01-02T15:12:14.380Z,100631.38
2023-01-02T15:14:42.629Z,100650.31
2023-01-02T15:17:21.576Z,100651.47
2023-01-02T15:19:48.659Z,100666.88
2023-01-02T15:22:21.689Z,100674.50
2023-01-02T15:24:53.601Z,100678.25
2023-01-02T15:27:29.101Z,100675.56
2023-01-02T15:29:58.037Z,100676.97
2023-01-02T15:32:27.255Z,100679.09
2023-01-02T15:35:08.873Z,100674.97
2023-01-02T15:37:42.695Z,100665.13
2023-01-02T15:40:20.999Z,100662.88
2023-01-02T15:43:07.118Z,100674.06
2023-01-02T15:45:34.863Z,100688.81
2023-01-02T15:48:02.168Z,100698.66
2023-01-02T15:50:30.731Z,100694.53
2023-01-02T15:53:06.461Z,100688.22
2023-01-02T15:55:39.580Z,100694.78
2023-01-02T15:58:34.529Z,100702.94
2023-01-02T16:01:11.730Z,100702.88
2023-01-02T16:04:00.282Z,100699.66
2023-01-02T16:06:31.385Z,100707.81
2023-01-02T16:09:00.404Z,100717.66
2023-01-02T16:11:27.918Z,100715.66
2023-01-02T16:14:22.233Z,100711.81
2023-01-02T16:17:01.974Z,100724.56
2023-01-02T16:19:38.570Z,100729.41
2023-01-02T16:22:10.923Z,100742.78
2023-01-02T16:24:47.487Z,100734.06
2023-01-02T16:27:22.565Z,100745.81
2023-01-02T16:29:51.470Z,100758.34
2023-01-02T16:32:28.405Z,100757.03
2023-01-02T16:35:04.488Z,100765.38
2023-01-02T16:37:33.664Z,100760.91
2023-01-02T16:41:01.338Z,100744.97
2023-01-02T16:43:15.242Z,100751.84
2023-01-02T16:45:41.948Z,100755.59
2023-01-02T16:48:14.442Z,100766.34
2023-01-02T16:50:43.926Z,100763.25
2023-01-02T16:53:17.149Z,100758.88
2023-01-02T16:55:43.817Z,100772.69
2023-01-02T16:58:11.657Z,100768.13
2023-01-02T17:00:43.393Z,100768.72
2023-01-02T17:03:19.817Z,100776.59
2023-01-02T17:06:01.811Z,100786.28
2023-01-02T17:08:32.941Z,100798.34
2023-01-02T17:11:00.721Z,100804.78
2023-01-02T17:13:28.350Z,100810.66
2023-01-02T17:15:55.301Z,100808.19
2023-01-02T17:18:22.141Z,100810.28
2023-01-02T17:20:49.313Z,100803.44
2023-01-02T17:23:18.977Z,100811.53
2023-01-02T17:25:46.440Z,100820.72
2023-01-02T17:28:13.602Z,100821.13
2023-01-02T17:30:51.512Z,100824.00
2023-01-02T17:33:18.885Z,100840.25
2023-01-02T17:35:50.949Z,100840.63
2023-01-02T17:38:17.984Z,100846.91
2023-01-02T17:40:44.652Z,100850.66
2023-01-02T17:43:11.111Z,100841.59
2023-01-02T17:45:37.827Z,100848.34
2023-01-02T17:48:11.007Z,100848.63
2023-01-02T17:50:39.004Z,100850.66
2023-01-02T17:53:05.612Z,100861.91
2023-01-02T17:55:32.147Z,100853.19
2023-01-02T17:58:00.832Z,100860.72
2023-01-02T18:00:27.840Z,100857.38
2023-01-02T18:05:33.018Z,100854.13
2023-01-02T18:07:59.642Z,100859.34
2023-01-02T18:10:32.615Z,100857.22
2023-01-02T18:13:00.004Z,100855.00
2023-01-02T18:15:26.844Z,100860.47
2023-01-02T18:17:55.269Z,100858.88
2023-01-02T18:20:23.443Z,100855.00
2023-01-02T18:22:51.105Z,100866.19
2023-01-02T18:25:24.596Z,100865.78
2023-01-02T18:28:01.380Z,100877.59
2023-01-02T18:30:28.716Z,100883.41
2023-01-02T18:33:15.531Z,100887.34
2023-01-02T18:35:58.745Z,100887.63
2023-01-02T18:38:35.971Z,100896.47
2023-01-02T18:41:16.268Z,100898.13
2023-01-02T18:43:44.532Z,100898.41
2023-01-02T18:46:16.685Z,100901.72
2023-01-02T18:48:43.654Z,100908.56
2023-01-02T18:51:17.517Z,100911.66
2023-01-02T18:53:52.581Z,100910.59
2023-01-02T18:56:30.604Z,100922.22
2023-01-02T18:59:05.695Z,100917.88
2023-01-02T19:01:37.002Z,100923.47
2023-01-02T19:04:28.431Z,100916.81
2023-01-02T19:06:58.742Z,100919.34
2023-01-02T19:09:32.146Z,100918.09
2023-01-02T19:12:38.175Z,100924.75
2023-01-02T19:15:43.856Z,100925.94
2023-01-02T19:18:13.546Z,100942.78
2023-01-02T19:20:45.011Z,100933.91
2023-01-02T19:23:34.978Z,100936.94
2023-01-02T19:26:20.395Z,100946.47
2023-01-02T19:28:52.692Z,100959.66
2023-01-02T19:31:19.345Z,100963.00
2023-01-02T19:34:00.316Z,100962.38
2023-01-02T19:36:36.929Z,100966.66
2023-01-02T19:39:35.075Z,100969.09
2023-01-02T19:42:20.510Z,100978.75
2023-01-02T19:44:47.848Z,100975.94
2023-01-02T19:47:15.312Z,100977.38
2023-01-02T19:49:42.110Z,100984.88
2023-01-02T19:52:12.937Z,100994.00
2023-01-02T19:54:40.329Z,101000.41
2023-01-02T19:57:08.319Z,100990.72
2023-01-02T19:59:41.645Z,101000.88
2023-01-02T20:02:10.359Z,101004.59
2023-01-02T20:04:36.975Z,101007.28
2023-01-02T20:07:03.527Z,100998.41
2023-01-02T20:09:30.071Z,101008.31
2023-01-02T20:12:15.356Z,101014.56
2023-01-02T20:14:42.481Z,101009.41
2023-01-02T20:17:09.966Z,101018.50
2023-01-02T20:19:37.310Z,101016.03
2023-01-02T20:22:04.808Z,101030.31
2023-01-02T20:24:31.385Z,101035.94
2023-01-02T20:26:59.748Z,101041.94
2023-01-02T20:29:26.971Z,101043.22
2023-01-02T20:31:53.986Z,101040.50
2023-01-02T20:34:21.096Z,101045.28
2023-01-02T20:36:48.526Z,101053.59
2023-01-02T20:39:15.143Z,101064.56
2023-01-02T20:41:42.477Z,101064.81
2023-01-02T20:44:10.737Z,101066.88
2023-01-02T20:46:38.194Z,101069.78
2023-01-02T20:49:05.982Z,101071.84
2023-01-02T20:51:33.347Z,101079.34
2023-01-02T20:54:00.416Z,101085.97
2023-01-02T20:56:27.950Z,101085.13
2023-01-02T20:58:55.594Z,101092.63
2023-01-02T21:01:23.317Z,101098.22
2023-01-02T21:03:50.554Z,101094.31
2023-01-02T21:06:17.214Z,101105.25
2023-01-02T21:08:44.079Z,101106.31
2023-01-02T21:11:11.068Z,101110.50
2023-01-02T21:13:38.889Z,101117.50
2023-01-02T21:16:05.606Z,101117.94
2023-01-02T21:18:33.319Z,101121.16
2023-01-02T21:21:22.956Z,101122.28
2023-01-02T21:23:50.120Z,101129.16
2023-01-02T21:26:21.893Z,101132.44
2023-01-02T21:28:49.900Z,101136.00
2023-01-02T21:31:18.557Z,101130.78
2023-01-02T21:33:46.553Z,101130.41
2023-01-02T21:36:13.147Z,101126.88
2023-01-02T21:38:39.989Z,101133.31
2023-01-02T21:41:25.265Z,101141.59
2023-01-02T21:43:51.726Z,101170.16
2023-01-02T21:46:18.283Z,101169.34
2023-01-02T21:48:44.849Z,101180.13
2023-01-02T21:51:11.325Z,101180.34
2023-01-02T21:53:37.931Z,101183.84
2023-01-02T21:56:04.440Z,101189.22
2023-01-02T21:58:30.936Z,101184.28
2023-01-02T22:00:57.560Z,101193.16
2023-01-02T22:03:26.620Z,101197.53
2023-01-02T22:05:53.768Z,101204.97
2023-01-02T22:08:20.490Z,101208.50
2023-01-02T22:10:49.563Z,101204.09
2023-01-02T22:13:16.738Z,101211.41
2023-01-02T22:15:45.637Z,101220.72
2023-01-02T22:18:12.331Z,101225.25
2023-01-02T22:20:38.837Z,101227.75
2023-01-02T22:23:05.318Z,101236.03
2023-01-02T22:25:32.048Z,101235.22
2023-01-02T22:27:58.999Z,101240.13
2023-01-02T22:30:33.471Z,101241.84
2023-01-02T22:33:00.931Z,101247.66
2023-01-02T22:35:27.747Z,101246.78
2023-01-02T22:37:54.329Z,101243.88
2023-01-02T22:40:20.994Z,101253.03
2023-01-02T22:43:05.224Z,101260.06
2023-01-02T22:45:53.054Z,101264.19
2023-01-02T22:48:22.676Z,101259.66
2023-01-02T22:50:52.002Z,101262.13
2023-01-02T22:53:30.585Z,101266.06
2023-01-02T22:55:57.130Z,101269.19
2023-01-02T22:58:24.962Z,101274.97
2023-01-02T23:01:00.265Z,101276.19
2023-01-02T23:03:29.668Z,101277.06
2023-01-02T23:05:56.692Z,101288.19
2023-01-02T23:08:23.212Z,101286.56
2023-01-02T23:10:49.714Z,101281.19
2023-01-02T23:13:16.302Z,101286.56
2023-01-02T23:16:02.873Z,101297.34
2023-01-02T23:18:54.562Z,101286.97
2023-01-02T23:21:24.325Z,101294.00
2023-01-02T23:23:51.907Z,101301.47
2023-01-02T23:26:19.205Z,101289.03
2023-01-02T23:31:34.086Z,101299.81
2023-01-02T23:34:00.561Z,101295.66
2023-01-02T23:36:27.963Z,101295.66
2023-01-02T23:38:54.455Z,101304.94
2023-01-02T23:41:20.912Z,101305.97
2023-01-02T23:43:47.368Z,101301.44
2023-01-02T23:46:13.865Z,101309.69
2023-01-02T23:48:40.480Z,101305.16
2023-01-02T23:51:06.953Z,101307.84
2023-01-02T23:53:33.757Z,101308.06
2023-01-02T23:56:00.321Z,101316.59
2023-01-02T23:58:26.836Z,101311.34
